Fargo, North Dakota
Current Conditions -  °F | °C
As of 2:53 AM on Friday 26 Dec 2014 (Local Time) from KFAR Reporting Station
Overcast Overcast  
Wind Chill: 13°   Ceiling: 2300
Heat Index: 25°   Visibility: 10mi
Dew Point: 20°   Wind: 14mph
Humidity: 81%   Direction: 350°N
Pressure: 30.03"   Gusts: NA
Location:  46.88°N, 96.78°W
Report Text: KFAR 260853Z 35012KT 10SM BKN023 OVC028 M04/M07 A3003 RMK AO2 SLP184 T10391067 53011
Loading
Personal Weather Stations






























Interactive Weather Map New forecast layout! Learn more

10-Day Weather Forecast

Advertisements
Track Severe Weather on mobile